sensor_id;sensor_type;location;lat;lon;timestamp;pressure;altitude;pressure_sealevel;temperature;humidity
18813;BME280;9534;51.140;6.296;2023-07-31T00:03:45;102511.19;;;16.57;100.00
18813;BME280;9534;51.140;6.296;2023-07-31T00:07:50;102514.78;;;16.57;100.00
18813;BME280;9534;51.140;6.296;2023-07-31T00:11:52;102520.16;;;16.65;100.00
18813;BME280;9534;51.140;6.296;2023-07-31T00:15:56;102524.41;;;16.68;100.00
18813;BME280;9534;51.140;6.296;2023-07-31T00:19:59;102543.16;;;16.72;100.00
18813;BME280;9534;51.140;6.296;2023-07-31T00:24:03;102531.94;;;16.80;100.00
18813;BME280;9534;51.140;6.296;2023-07-31T00:28:07;102557.06;;;16.85;100.00
18813;BME280;9534;51.140;6.296;2023-07-31T00:32:10;102561.53;;;16.86;100.00
18813;BME280;9534;51.140;6.296;2023-07-31T00:36:13;102578.75;;;16.82;100.00
18813;BME280;9534;51.140;6.296;2023-07-31T00:40:18;102582.78;;;16.79;100.00
18813;BME280;9534;51.140;6.296;2023-07-31T00:44:21;102588.31;;;16.79;100.00
18813;BME280;9534;51.140;6.296;2023-07-31T00:48:24;102577.69;;;16.83;100.00
18813;BME280;9534;51.140;6.296;2023-07-31T00:52:28;102597.69;;;16.85;100.00
18813;BME280;9534;51.140;6.296;2023-07-31T00:56:32;102601.31;;;16.85;100.00
18813;BME280;9534;51.140;6.296;2023-07-31T01:00:35;102621.53;;;16.86;100.00
18813;BME280;9534;51.140;6.296;2023-07-31T01:04:39;102635.59;;;16.91;100.00
18813;BME280;9534;51.140;6.296;2023-07-31T01:08:44;102642.75;;;16.79;100.00
18813;BME280;9534;51.140;6.296;2023-07-31T01:12:50;102669.16;;;16.81;100.00
18813;BME280;9534;51.140;6.296;2023-07-31T01:16:54;102688.94;;;16.78;100.00
18813;BME280;9534;51.140;6.296;2023-07-31T01:20:58;102742.78;;;16.82;100.00
18813;BME280;9534;51.140;6.296;2023-07-31T01:25:11;102735.72;;;16.80;100.00
18813;BME280;9534;51.140;6.296;2023-07-31T01:29:23;102752.97;;;16.82;100.00
18813;BME280;9534;51.140;6.296;2023-07-31T01:33:28;102755.16;;;16.86;100.00
18813;BME280;9534;51.140;6.296;2023-07-31T01:37:31;102752.97;;;16.82;100.00
18813;BME280;9534;51.140;6.296;2023-07-31T01:41:35;102742.00;;;16.88;100.00
18813;BME280;9534;51.140;6.296;2023-07-31T01:45:40;102734.75;;;16.87;100.00
18813;BME280;9534;51.140;6.296;2023-07-31T01:49:43;102724.13;;;16.91;100.00
18813;BME280;9534;51.140;6.296;2023-07-31T01:53:46;102707.75;;;16.89;100.00
18813;BME280;9534;51.140;6.296;2023-07-31T01:57:49;102700.09;;;16.91;100.00
18813;BME280;9534;51.140;6.296;2023-07-31T02:01:55;102683.09;;;16.94;100.00
18813;BME280;9534;51.140;6.296;2023-07-31T02:05:58;102683.34;;;16.99;100.00
18813;BME280;9534;51.140;6.296;2023-07-31T02:10:01;102674.00;;;17.00;100.00
18813;BME280;9534;51.140;6.296;2023-07-31T02:14:04;102662.91;;;17.00;100.00
18813;BME280;9534;51.140;6.296;2023-07-31T02:18:08;102652.50;;;17.02;100.00
18813;BME280;9534;51.140;6.296;2023-07-31T02:22:11;102636.16;;;17.07;100.00
18813;BME280;9534;51.140;6.296;2023-07-31T02:26:14;102627.84;;;17.07;100.00
18813;BME280;9534;51.140;6.296;2023-07-31T02:30:18;102590.19;;;17.06;100.00
18813;BME280;9534;51.140;6.296;2023-07-31T02:34:23;102580.38;;;17.10;100.00
18813;BME280;9534;51.140;6.296;2023-07-31T02:38:25;102572.94;;;17.11;100.00
18813;BME280;9534;51.140;6.296;2023-07-31T02:42:28;102579.97;;;17.13;100.00
18813;BME280;9534;51.140;6.296;2023-07-31T02:46:31;102583.84;;;17.19;100.00
18813;BME280;9534;51.140;6.296;2023-07-31T02:50:36;102584.47;;;17.21;100.00
18813;BME280;9534;51.140;6.296;2023-07-31T02:54:39;102593.22;;;17.24;100.00
18813;BME280;9534;51.140;6.296;2023-07-31T02:58:42;102604.75;;;17.28;100.00
18813;BME280;9534;51.140;6.296;2023-07-31T03:02:45;102598.75;;;17.24;100.00
18813;BME280;9534;51.140;6.296;2023-07-31T03:06:49;102603.88;;;17.27;100.00
18813;BME280;9534;51.140;6.296;2023-07-31T03:10:53;102626.00;;;17.27;100.00
18813;BME280;9534;51.140;6.296;2023-07-31T03:14:57;102622.59;;;17.25;100.00
18813;BME280;9534;51.140;6.296;2023-07-31T03:19:00;102621.13;;;17.29;100.00
18813;BME280;9534;51.140;6.296;2023-07-31T03:23:04;102612.59;;;17.24;100.00
18813;BME280;9534;51.140;6.296;2023-07-31T03:27:07;102610.69;;;17.25;100.00
18813;BME280;9534;51.140;6.296;2023-07-31T03:31:10;102600.88;;;17.22;100.00
18813;BME280;9534;51.140;6.296;2023-07-31T03:35:14;102580.84;;;17.20;100.00
18813;BME280;9534;51.140;6.296;2023-07-31T03:39:18;102573.59;;;17.19;100.00
18813;BME280;9534;51.140;6.296;2023-07-31T03:43:21;102544.22;;;17.18;100.00
18813;BME280;9534;51.140;6.296;2023-07-31T03:47:24;102541.25;;;17.20;100.00
18813;BME280;9534;51.140;6.296;2023-07-31T03:51:28;102518.25;;;17.19;100.00
18813;BME280;9534;51.140;6.296;2023-07-31T03:55:32;102516.13;;;17.15;100.00
18813;BME280;9534;51.140;6.296;2023-07-31T03:59:36;102481.63;;;17.11;100.00
18813;BME280;9534;51.140;6.296;2023-07-31T04:03:40;102488.47;;;17.15;100.00
18813;BME280;9534;51.140;6.296;2023-07-31T04:07:43;102465.88;;;17.11;100.00
18813;BME280;9534;51.140;6.296;2023-07-31T04:11:47;102459.50;;;17.17;100.00
18813;BME280;9534;51.140;6.296;2023-07-31T04:15:50;102471.84;;;17.21;100.00
18813;BME280;9534;51.140;6.296;2023-07-31T04:19:53;102475.91;;;17.25;100.00
18813;BME280;9534;51.140;6.296;2023-07-31T04:23:56;102478.50;;;17.27;100.00
18813;BME280;9534;51.140;6.296;2023-07-31T04:28:01;102485.50;;;17.29;100.00
18813;BME280;9534;51.140;6.296;2023-07-31T04:32:04;102488.50;;;17.34;100.00
18813;BME280;9534;51.140;6.296;2023-07-31T04:36:07;102512.56;;;17.40;100.00
18813;BME280;9534;51.140;6.296;2023-07-31T04:40:10;102529.66;;;17.43;100.00
18813;BME280;9534;51.140;6.296;2023-07-31T04:44:15;102531.16;;;17.46;100.00
18813;BME280;9534;51.140;6.296;2023-07-31T04:48:18;102541.38;;;17.52;100.00
18813;BME280;9534;51.140;6.296;2023-07-31T04:52:21;102556.94;;;17.53;100.00
18813;BME280;9534;51.140;6.296;2023-07-31T04:56:24;102584.44;;;17.61;100.00
18813;BME280;9534;51.140;6.296;2023-07-31T05:00:28;102598.94;;;17.63;100.00
18813;BME280;9534;51.140;6.296;2023-07-31T05:04:31;102625.16;;;17.67;100.00
18813;BME280;9534;51.140;6.296;2023-07-31T05:08:34;102644.53;;;17.67;100.00
18813;BME280;9534;51.140;6.296;2023-07-31T05:12:37;102659.25;;;17.74;100.00
18813;BME280;9534;51.140;6.296;2023-07-31T05:16:41;102660.75;;;17.70;100.00
18813;BME280;9534;51.140;6.296;2023-07-31T05:20:45;102671.81;;;17.70;100.00
18813;BME280;9534;51.140;6.296;2023-07-31T05:24:48;102680.78;;;17.72;100.00
18813;BME280;9534;51.140;6.296;2023-07-31T05:28:51;102667.34;;;17.69;100.00
18813;BME280;9534;51.140;6.296;2023-07-31T05:32:56;102632.59;;;17.60;100.00
18813;BME280;9534;51.140;6.296;2023-07-31T05:36:59;102577.56;;;17.44;100.00
18813;BME280;9534;51.140;6.296;2023-07-31T05:41:03;102489.94;;;17.17;100.00
18813;BME280;9534;51.140;6.296;2023-07-31T05:45:06;102412.88;;;17.01;100.00
18813;BME280;9534;51.140;6.296;2023-07-31T05:49:11;102353.47;;;16.84;100.00
18813;BME280;9534;51.140;6.296;2023-07-31T05:53:14;102297.28;;;16.77;100.00
18813;BME280;9534;51.140;6.296;2023-07-31T05:57:17;102267.31;;;16.74;100.00
18813;BME280;9534;51.140;6.296;2023-07-31T06:01:20;102236.44;;;16.71;100.00
18813;BME280;9534;51.140;6.296;2023-07-31T06:05:25;102215.19;;;16.71;100.00
18813;BME280;9534;51.140;6.296;2023-07-31T06:09:30;102209.22;;;16.74;100.00
18813;BME280;9534;51.140;6.296;2023-07-31T06:13:33;102210.06;;;16.75;100.00
18813;BME280;9534;51.140;6.296;2023-07-31T06:17:36;102213.28;;;16.78;100.00
18813;BME280;9534;51.140;6.296;2023-07-31T06:21:41;102219.22;;;16.82;100.00
18813;BME280;9534;51.140;6.296;2023-07-31T06:25:45;102217.97;;;16.84;100.00
18813;BME280;9534;51.140;6.296;2023-07-31T06:29:48;102215.59;;;16.88;100.00
18813;BME280;9534;51.140;6.296;2023-07-31T06:33:52;102226.25;;;16.91;100.00
18813;BME280;9534;51.140;6.296;2023-07-31T06:37:56;102228.81;;;16.92;100.00
18813;BME280;9534;51.140;6.296;2023-07-31T06:41:59;102234.34;;;16.92;100.00
18813;BME280;9534;51.140;6.296;2023-07-31T06:46:04;102233.03;;;16.95;100.00
18813;BME280;9534;51.140;6.296;2023-07-31T06:50:07;102239.22;;;16.97;100.00
18813;BME280;9534;51.140;6.296;2023-07-31T06:54:12;102240.09;;;16.97;100.00
18813;BME280;9534;51.140;6.296;2023-07-31T06:58:15;102275.19;;;17.03;100.00
18813;BME280;9534;51.140;6.296;2023-07-31T07:02:18;102259.44;;;16.97;100.00
18813;BME280;9534;51.140;6.296;2023-07-31T07:06:21;102231.78;;;16.84;100.00
18813;BME280;9534;51.140;6.296;2023-07-31T07:10:26;102237.72;;;16.75;100.00
18813;BME280;9534;51.140;6.296;2023-07-31T07:14:29;102225.59;;;16.69;100.00
18813;BME280;9534;51.140;6.296;2023-07-31T07:18:32;102230.09;;;16.64;100.00
18813;BME280;9534;51.140;6.296;2023-07-31T07:22:38;102234.75;;;16.57;100.00
18813;BME280;9534;51.140;6.296;2023-07-31T07:26:46;102223.47;;;16.52;100.00
18813;BME280;9534;51.140;6.296;2023-07-31T07:30:50;102207.50;;;16.47;100.00
18813;BME280;9534;51.140;6.296;2023-07-31T07:34:54;102203.69;;;16.48;100.00
18813;BME280;9534;51.140;6.296;2023-07-31T07:38:58;102189.03;;;16.48;100.00
18813;BME280;9534;51.140;6.296;2023-07-31T07:43:02;102181.13;;;16.51;100.00
18813;BME280;9534;51.140;6.296;2023-07-31T07:47:05;102182.84;;;16.52;100.00
18813;BME280;9534;51.140;6.296;2023-07-31T07:51:09;102177.97;;;16.48;100.00
18813;BME280;9534;51.140;6.296;2023-07-31T07:55:12;102181.13;;;16.51;100.00
18813;BME280;9534;51.140;6.296;2023-07-31T07:59:16;102200.50;;;16.45;100.00
18813;BME280;9534;51.140;6.296;2023-07-31T08:03:19;102190.91;;;16.47;100.00
18813;BME280;9534;51.140;6.296;2023-07-31T08:07:23;102181.97;;;16.45;100.00
18813;BME280;9534;51.140;6.296;2023-07-31T08:11:26;102185.22;;;16.62;100.00
18813;BME280;9534;51.140;6.296;2023-07-31T08:15:31;102181.59;;;16.74;100.00
18813;BME280;9534;51.140;6.296;2023-07-31T08:19:34;102184.34;;;16.87;100.00
18813;BME280;9534;51.140;6.296;2023-07-31T08:23:37;102188.59;;;16.96;100.00
18813;BME280;9534;51.140;6.296;2023-07-31T08:27:42;102193.06;;;16.91;100.00
18813;BME280;9534;51.140;6.296;2023-07-31T08:31:47;102192.41;;;16.76;100.00
18813;BME280;9534;51.140;6.296;2023-07-31T08:35:50;102190.50;;;16.70;100.00
18813;BME280;9534;51.140;6.296;2023-07-31T08:39:53;102176.06;;;16.74;100.00
18813;BME280;9534;51.140;6.296;2023-07-31T08:43:56;102187.97;;;16.68;100.00
18813;BME280;9534;51.140;6.296;2023-07-31T08:48:01;102179.44;;;16.70;100.00
18813;BME280;9534;51.140;6.296;2023-07-31T08:52:05;102175.19;;;16.67;100.00
18813;BME280;9534;51.140;6.296;2023-07-31T08:56:08;102176.25;;;16.66;100.00
18813;BME280;9534;51.140;6.296;2023-07-31T09:00:12;102182.00;;;16.71;100.00
18813;BME280;9534;51.140;6.296;2023-07-31T09:04:16;102196.03;;;16.76;100.00
18813;BME280;9534;51.140;6.296;2023-07-31T09:08:22;102192.44;;;16.82;100.00
18813;BME280;9534;51.140;6.296;2023-07-31T09:12:25;102195.19;;;16.82;100.00
18813;BME280;9534;51.140;6.296;2023-07-31T09:16:28;102193.50;;;16.81;100.00
18813;BME280;9534;51.140;6.296;2023-07-31T09:20:35;102195.63;;;16.79;100.00
18813;BME280;9534;51.140;6.296;2023-07-31T09:24:39;102186.69;;;16.77;100.00
18813;BME280;9534;51.140;6.296;2023-07-31T09:28:42;102185.00;;;16.76;100.00
18813;BME280;9534;51.140;6.296;2023-07-31T09:32:47;102201.16;;;16.79;100.00
18813;BME280;9534;51.140;6.296;2023-07-31T09:36:52;102183.50;;;16.80;100.00
18813;BME280;9534;51.140;6.296;2023-07-31T09:40:56;102188.38;;;16.78;100.00
18813;BME280;9534;51.140;6.296;2023-07-31T09:45:08;102176.47;;;16.84;100.00
18813;BME280;9534;51.140;6.296;2023-07-31T09:49:12;102181.16;;;16.90;100.00
18813;BME280;9534;51.140;6.296;2023-07-31T09:53:16;102181.59;;;16.87;100.00
18813;BME280;9534;51.140;6.296;2023-07-31T09:57:20;102189.44;;;16.97;100.00
18813;BME280;9534;51.140;6.296;2023-07-31T10:01:24;102195.41;;;17.00;100.00
18813;BME280;9534;51.140;6.296;2023-07-31T10:05:29;102184.28;;;17.13;100.00
18813;BME280;9534;51.140;6.296;2023-07-31T10:09:34;102190.44;;;17.28;100.00
18813;BME280;9534;51.140;6.296;2023-07-31T10:13:37;102195.91;;;17.60;100.00
18813;BME280;9534;51.140;6.296;2023-07-31T10:17:41;102198.03;;;17.65;100.00
18813;BME280;9534;51.140;6.296;2023-07-31T10:21:44;102212.47;;;17.73;100.00
18813;BME280;9534;51.140;6.296;2023-07-31T10:25:49;102218.88;;;17.74;100.00
18813;BME280;9534;51.140;6.296;2023-07-31T10:29:54;102250.84;;;17.70;100.00
18813;BME280;9534;51.140;6.296;2023-07-31T10:33:58;102237.00;;;17.70;100.00
18813;BME280;9534;51.140;6.296;2023-07-31T10:38:09;102255.09;;;17.79;100.00
18813;BME280;9534;51.140;6.296;2023-07-31T10:42:14;102270.19;;;17.83;100.00
18813;BME280;9534;51.140;6.296;2023-07-31T10:46:18;102282.75;;;17.92;100.00
18813;BME280;9534;51.140;6.296;2023-07-31T10:50:21;102317.63;;;18.12;100.00
18813;BME280;9534;51.140;6.296;2023-07-31T10:54:25;102331.81;;;18.29;100.00
18813;BME280;9534;51.140;6.296;2023-07-31T10:58:32;102384.06;;;18.32;100.00
18813;BME280;9534;51.140;6.296;2023-07-31T11:02:35;102414.34;;;18.33;100.00
18813;BME280;9534;51.140;6.296;2023-07-31T11:06:39;102435.03;;;18.31;100.00
18813;BME280;9534;51.140;6.296;2023-07-31T11:10:43;102479.81;;;18.41;100.00
18813;BME280;9534;51.140;6.296;2023-07-31T11:14:54;102509.44;;;18.53;100.00
18813;BME280;9534;51.140;6.296;2023-07-31T11:18:58;102542.75;;;18.47;100.00
18813;BME280;9534;51.140;6.296;2023-07-31T11:23:01;102565.75;;;18.60;100.00
18813;BME280;9534;51.140;6.296;2023-07-31T11:27:07;102589.22;;;18.58;100.00
18813;BME280;9534;51.140;6.296;2023-07-31T11:31:11;102594.34;;;18.61;100.00
18813;BME280;9534;51.140;6.296;2023-07-31T11:35:14;102661.97;;;18.72;100.00
18813;BME280;9534;51.140;6.296;2023-07-31T11:39:17;102705.91;;;18.88;100.00
18813;BME280;9534;51.140;6.296;2023-07-31T11:43:20;102775.72;;;18.98;100.00
18813;BME280;9534;51.140;6.296;2023-07-31T11:47:26;102756.97;;;18.74;100.00
18813;BME280;9534;51.140;6.296;2023-07-31T11:51:29;102702.31;;;18.62;100.00
18813;BME280;9534;51.140;6.296;2023-07-31T11:55:33;102634.47;;;18.39;100.00
18813;BME280;9534;51.140;6.296;2023-07-31T11:59:37;102539.34;;;18.45;100.00
18813;BME280;9534;51.140;6.296;2023-07-31T12:03:42;102424.16;;;18.23;100.00
18813;BME280;9534;51.140;6.296;2023-07-31T12:07:46;102370.06;;;18.01;100.00
18813;BME280;9534;51.140;6.296;2023-07-31T12:11:49;102321.03;;;18.08;100.00
18813;BME280;9534;51.140;6.296;2023-07-31T12:15:53;102269.56;;;18.38;100.00
18813;BME280;9534;51.140;6.296;2023-07-31T12:19:59;102269.38;;;18.94;100.00
18813;BME280;9534;51.140;6.296;2023-07-31T12:24:02;102326.75;;;19.00;100.00
18813;BME280;9534;51.140;6.296;2023-07-31T12:28:06;102347.00;;;18.76;100.00
18813;BME280;9534;51.140;6.296;2023-07-31T12:32:19;102342.22;;;18.83;100.00
18813;BME280;9534;51.140;6.296;2023-07-31T12:36:24;102434.69;;;19.52;100.00
18813;BME280;9534;51.140;6.296;2023-07-31T12:40:28;102515.13;;;19.34;100.00
18813;BME280;9534;51.140;6.296;2023-07-31T12:44:33;102572.38;;;19.29;100.00
18813;BME280;9534;51.140;6.296;2023-07-31T12:48:37;102608.28;;;19.30;100.00
18813;BME280;9534;51.140;6.296;2023-07-31T12:52:41;102691.84;;;19.73;100.00
18813;BME280;9534;51.140;6.296;2023-07-31T12:56:45;102838.91;;;19.74;100.00
18813;BME280;9534;51.140;6.296;2023-07-31T13:00:48;102950.44;;;20.36;100.00
18813;BME280;9534;51.140;6.296;2023-07-31T13:04:51;102880.47;;;20.32;100.00
18813;BME280;9534;51.140;6.296;2023-07-31T13:08:56;102815.13;;;20.48;100.00
18813;BME280;9534;51.140;6.296;2023-07-31T13:12:59;102490.72;;;20.83;100.00
18813;BME280;9534;51.140;6.296;2023-07-31T13:17:02;102037.88;;;20.83;100.00
18813;BME280;9534;51.140;6.296;2023-07-31T13:21:05;101968.53;;;21.05;100.00
18813;BME280;9534;51.140;6.296;2023-07-31T13:25:09;101723.78;;;21.19;100.00
18813;BME280;9534;51.140;6.296;2023-07-31T13:29:12;101754.84;;;21.12;100.00
18813;BME280;9534;51.140;6.296;2023-07-31T13:33:16;101223.13;;;21.17;100.00
18813;BME280;9534;51.140;6.296;2023-07-31T13:37:37;101265.00;;;20.52;100.00
18813;BME280;9534;51.140;6.296;2023-07-31T13:41:41;101411.03;;;20.55;100.00
18813;BME280;9534;51.140;6.296;2023-07-31T13:45:44;101441.81;;;20.48;100.00
18813;BME280;9534;51.140;6.296;2023-07-31T13:49:47;101491.03;;;20.31;100.00
18813;BME280;9534;51.140;6.296;2023-07-31T13:53:50;101572.84;;;20.19;100.00
18813;BME280;9534;51.140;6.296;2023-07-31T13:57:55;101681.19;;;20.02;100.00
18813;BME280;9534;51.140;6.296;2023-07-31T14:01:58;101649.81;;;19.90;100.00
18813;BME280;9534;51.140;6.296;2023-07-31T14:06:01;101747.06;;;19.79;100.00
18813;BME280;9534;51.140;6.296;2023-07-31T14:10:04;102027.41;;;19.40;100.00
18813;BME280;9534;51.140;6.296;2023-07-31T14:14:10;102255.41;;;19.32;100.00
18813;BME280;9534;51.140;6.296;2023-07-31T14:18:13;102325.41;;;19.40;100.00
18813;BME280;9534;51.140;6.296;2023-07-31T14:22:26;102293.19;;;19.57;100.00
18813;BME280;9534;51.140;6.296;2023-07-31T14:26:30;102100.50;;;19.70;100.00
18813;BME280;9534;51.140;6.296;2023-07-31T14:30:34;101910.16;;;19.90;100.00
18813;BME280;9534;51.140;6.296;2023-07-31T14:34:38;101729.66;;;19.95;100.00
18813;BME280;9534;51.140;6.296;2023-07-31T14:38:41;101673.34;;;19.99;100.00
18813;BME280;9534;51.140;6.296;2023-07-31T14:42:45;101582.97;;;19.97;100.00
18813;BME280;9534;51.140;6.296;2023-07-31T14:46:49;101522.91;;;19.96;100.00
18813;BME280;9534;51.140;6.296;2023-07-31T14:50:52;101448.56;;;19.87;100.00
18813;BME280;9534;51.140;6.296;2023-07-31T14:54:56;101403.09;;;19.92;100.00
18813;BME280;9534;51.140;6.296;2023-07-31T14:58:59;101334.22;;;19.94;100.00
18813;BME280;9534;51.140;6.296;2023-07-31T15:03:03;101368.22;;;19.85;100.00
18813;BME280;9534;51.140;6.296;2023-07-31T15:07:07;101438.28;;;19.87;100.00
18813;BME280;9534;51.140;6.296;2023-07-31T15:11:10;101394.16;;;19.74;100.00
18813;BME280;9534;51.140;6.296;2023-07-31T15:15:13;101388.50;;;19.69;100.00
18813;BME280;9534;51.140;6.296;2023-07-31T15:19:18;101418.91;;;19.59;100.00
18813;BME280;9534;51.140;6.296;2023-07-31T15:23:21;101562.28;;;19.37;100.00
18813;BME280;9534;51.140;6.296;2023-07-31T15:27:25;101699.78;;;19.28;100.00
18813;BME280;9534;51.140;6.296;2023-07-31T15:31:28;101775.44;;;19.24;100.00
18813;BME280;9534;51.140;6.296;2023-07-31T15:35:32;101873.25;;;19.08;100.00
18813;BME280;9534;51.140;6.296;2023-07-31T15:39:35;102167.56;;;18.70;100.00
18813;BME280;9534;51.140;6.296;2023-07-31T15:43:39;102714.91;;;18.52;100.00
18813;BME280;9534;51.140;6.296;2023-07-31T15:47:42;102650.88;;;18.47;100.00
18813;BME280;9534;51.140;6.296;2023-07-31T15:51:47;102596.91;;;18.43;100.00
18813;BME280;9534;51.140;6.296;2023-07-31T15:55:51;102530.38;;;18.43;100.00
18813;BME280;9534;51.140;6.296;2023-07-31T15:59:54;102451.22;;;18.34;100.00
18813;BME280;9534;51.140;6.296;2023-07-31T16:03:57;102193.03;;;18.24;100.00
18813;BME280;9534;51.140;6.296;2023-07-31T16:08:02;102156.84;;;18.19;100.00
18813;BME280;9534;51.140;6.296;2023-07-31T16:12:05;102082.28;;;18.11;100.00
18813;BME280;9534;51.140;6.296;2023-07-31T16:16:08;102041.44;;;18.00;100.00
18813;BME280;9534;51.140;6.296;2023-07-31T16:20:11;101998.31;;;17.86;100.00
18813;BME280;9534;51.140;6.296;2023-07-31T16:24:16;101952.56;;;17.77;100.00
18813;BME280;9534;51.140;6.296;2023-07-31T16:28:19;101923.63;;;17.73;100.00
18813;BME280;9534;51.140;6.296;2023-07-31T16:32:22;101907.03;;;17.73;100.00
18813;BME280;9534;51.140;6.296;2023-07-31T16:36:26;101894.41;;;17.77;100.00
18813;BME280;9534;51.140;6.296;2023-07-31T16:40:30;101886.09;;;17.77;100.00
18813;BME280;9534;51.140;6.296;2023-07-31T16:44:33;101891.34;;;17.85;100.00
18813;BME280;9534;51.140;6.296;2023-07-31T16:48:36;101879.22;;;17.86;100.00
18813;BME280;9534;51.140;6.296;2023-07-31T16:52:40;101890.03;;;17.87;100.00
18813;BME280;9534;51.140;6.296;2023-07-31T16:56:44;101891.97;;;17.87;100.00
18813;BME280;9534;51.140;6.296;2023-07-31T17:01:00;101870.84;;;17.68;100.00
18813;BME280;9534;51.140;6.296;2023-07-31T17:05:05;101833.34;;;17.47;100.00
18813;BME280;9534;51.140;6.296;2023-07-31T17:09:09;101808.91;;;17.38;100.00
18813;BME280;9534;51.140;6.296;2023-07-31T17:13:14;101805.13;;;17.33;100.00
18813;BME280;9534;51.140;6.296;2023-07-31T17:17:17;101813.44;;;17.33;100.00
18813;BME280;9534;51.140;6.296;2023-07-31T17:21:20;101789.81;;;17.30;100.00
18813;BME280;9534;51.140;6.296;2023-07-31T17:25:23;101789.59;;;17.32;100.00
18813;BME280;9534;51.140;6.296;2023-07-31T17:29:28;101798.56;;;17.27;100.00
18813;BME280;9534;51.140;6.296;2023-07-31T17:33:31;101790.25;;;17.27;100.00
18813;BME280;9534;51.140;6.296;2023-07-31T17:37:34;101796.25;;;17.24;100.00
18813;BME280;9534;51.140;6.296;2023-07-31T17:41:37;101807.75;;;17.21;100.00
18813;BME280;9534;51.140;6.296;2023-07-31T17:45:42;101793.91;;;17.21;100.00
18813;BME280;9534;51.140;6.296;2023-07-31T17:49:45;101794.16;;;17.20;100.00
18813;BME280;9534;51.140;6.296;2023-07-31T17:53:49;101799.44;;;17.21;100.00
18813;BME280;9534;51.140;6.296;2023-07-31T17:57:52;101821.16;;;17.24;100.00
18813;BME280;9534;51.140;6.296;2023-07-31T18:01:56;101815.16;;;17.27;100.00
18813;BME280;9534;51.140;6.296;2023-07-31T18:05:59;101817.28;;;17.32;100.00
18813;BME280;9534;51.140;6.296;2023-07-31T18:10:03;101797.94;;;17.25;100.00
18813;BME280;9534;51.140;6.296;2023-07-31T18:14:09;101809.00;;;17.25;100.00
18813;BME280;9534;51.140;6.296;2023-07-31T18:18:13;101797.47;;;17.28;100.00
18813;BME280;9534;51.140;6.296;2023-07-31T18:22:16;101812.38;;;17.27;100.00
18813;BME280;9534;51.140;6.296;2023-07-31T18:26:20;101794.53;;;17.23;100.00
18813;BME280;9534;51.140;6.296;2023-07-31T18:30:23;101796.69;;;17.21;100.00
18813;BME280;9534;51.140;6.296;2023-07-31T18:34:27;101792.84;;;17.22;100.00
18813;BME280;9534;51.140;6.296;2023-07-31T18:38:30;101786.47;;;17.22;100.00
18813;BME280;9534;51.140;6.296;2023-07-31T18:42:33;101786.47;;;17.22;100.00
18813;BME280;9534;51.140;6.296;2023-07-31T18:46:37;101767.94;;;17.22;100.00
18813;BME280;9534;51.140;6.296;2023-07-31T18:50:42;101775.19;;;17.23;100.00
18813;BME280;9534;51.140;6.296;2023-07-31T18:54:45;101757.91;;;17.28;100.00
18813;BME280;9534;51.140;6.296;2023-07-31T18:58:49;101756.84;;;17.29;100.00
18813;BME280;9534;51.140;6.296;2023-07-31T19:02:53;101706.41;;;17.27;100.00
18813;BME280;9534;51.140;6.296;2023-07-31T19:06:58;101679.13;;;17.30;100.00
18813;BME280;9534;51.140;6.296;2023-07-31T19:11:01;101668.03;;;17.30;100.00
18813;BME280;9534;51.140;6.296;2023-07-31T19:15:04;101673.53;;;17.36;100.00
18813;BME280;9534;51.140;6.296;2023-07-31T19:19:07;101707.56;;;17.37;100.00
18813;BME280;9534;51.140;6.296;2023-07-31T19:23:12;101735.66;;;17.40;100.00
18813;BME280;9534;51.140;6.296;2023-07-31T19:27:15;101733.53;;;17.42;100.00
18813;BME280;9534;51.140;6.296;2023-07-31T19:31:18;101752.25;;;17.40;100.00
18813;BME280;9534;51.140;6.296;2023-07-31T19:35:21;101736.06;;;17.44;100.00
18813;BME280;9534;51.140;6.296;2023-07-31T19:39:28;101733.91;;;17.46;100.00
18813;BME280;9534;51.140;6.296;2023-07-31T19:43:31;101717.91;;;17.48;100.00
18813;BME280;9534;51.140;6.296;2023-07-31T19:47:34;101703.00;;;17.49;100.00
18813;BME280;9534;51.140;6.296;2023-07-31T19:51:38;101719.78;;;17.54;100.00
18813;BME280;9534;51.140;6.296;2023-07-31T19:55:43;101713.78;;;17.57;100.00
18813;BME280;9534;51.140;6.296;2023-07-31T19:59:46;101733.47;;;17.67;100.00
18813;BME280;9534;51.140;6.296;2023-07-31T20:03:49;101740.47;;;17.69;100.00
18813;BME280;9534;51.140;6.296;2023-07-31T20:07:52;101728.09;;;17.72;100.00
18813;BME280;9534;51.140;6.296;2023-07-31T20:11:56;101727.63;;;17.75;100.00
18813;BME280;9534;51.140;6.296;2023-07-31T20:16:00;101722.56;;;17.72;100.00
18813;BME280;9534;51.140;6.296;2023-07-31T20:20:04;101738.88;;;17.80;100.00
18813;BME280;9534;51.140;6.296;2023-07-31T20:24:07;101731.69;;;17.72;100.00
18813;BME280;9534;51.140;6.296;2023-07-31T20:28:12;101730.47;;;17.68;100.00
18813;BME280;9534;51.140;6.296;2023-07-31T20:32:15;101718.94;;;17.71;100.00
18813;BME280;9534;51.140;6.296;2023-07-31T20:36:18;101707.03;;;17.71;100.00
18813;BME280;9534;51.140;6.296;2023-07-31T20:40:21;101704.72;;;17.68;100.00
18813;BME280;9534;51.140;6.296;2023-07-31T20:44:25;101690.88;;;17.68;100.00
18813;BME280;9534;51.140;6.296;2023-07-31T20:48:28;101692.09;;;17.72;100.00
18813;BME280;9534;51.140;6.296;2023-07-31T20:52:32;101698.72;;;17.71;100.00
18813;BME280;9534;51.140;6.296;2023-07-31T20:56:35;101691.03;;;17.73;100.00
18813;BME280;9534;51.140;6.296;2023-07-31T21:00:40;101676.09;;;17.74;100.00
18813;BME280;9534;51.140;6.296;2023-07-31T21:04:45;101665.78;;;17.81;100.00
18813;BME280;9534;51.140;6.296;2023-07-31T21:08:48;101669.38;;;17.81;100.00
18813;BME280;9534;51.140;6.296;2023-07-31T21:12:51;101644.63;;;17.68;100.00
18813;BME280;9534;51.140;6.296;2023-07-31T21:16:56;101636.78;;;17.65;100.00